Albert, New Mexico
Current Conditions -  °F | °C
As of 12:53 AM on Monday 22 Dec 2014 (Local Time) from KTCC Reporting Station
Clear Clear  
Wind Chill: 41°   Ceiling: Unl
Heat Index: 47°   Visibility: 10mi
Dew Point: 29°   Wind: 15mph
Humidity: 50%   Direction: 270°W
Pressure: 29.63"   Gusts: NA
Location:  35.7181°N, 103.591°W
Report Text: KTCC 220753Z AUTO 27013KT 10SM CLR 08/M02 A2963 RMK AO2 SLP004 T00831017
Loading
Personal Weather Stations






























Interactive Weather Map New forecast layout! Learn more

10-Day Weather Forecast

Advertisements
Track Severe Weather on mobile